Time;durP1;ratioP1;P1;durP2;ratioP2;P2;SDS_P1;SDS_P2;PMS_P1;PMS_P2;Temp;Humidity;BMP_temperature;BMP_pressure;BME280_temperature;BME280_humidity;BME280_pressure;Samples;Min_cycle;Max_cycle;Signal;HPM_P1;HPM_P2
2023/03/31 00:02:21;;;;;;;1.50;1.50;;;;;;;;;;6235485;28;20294;-74
2023/03/31 00:05:26;;;;;;;1.40;1.40;;;;;;;;;;6235143;28;20296;-73
2023/03/31 00:08:35;;;;;;;1.47;1.47;;;;;;;;;;6236743;28;20579;-75
2023/03/31 00:11:40;;;;;;;1.43;1.40;;;;;;;;;;6248540;28;20295;-74
2023/03/31 00:14:47;;;;;;;1.47;1.47;;;;;;;;;;6235157;28;20389;-74
2023/03/31 00:17:52;;;;;;;1.60;1.60;;;;;;;;;;6235014;28;20643;-74
2023/03/31 00:21:07;;;;;;;1.60;1.60;;;;;;;;;;6235402;28;20297;-75
2023/03/31 00:24:13;;;;;;;1.77;1.70;;;;;;;;;;6234588;28;20316;-75
2023/03/31 00:27:18;;;;;;;1.40;1.40;;;;;;;;;;6235314;28;20311;-75
2023/03/31 00:30:25;;;;;;;1.70;1.70;;;;;;;;;;6233481;28;20291;-75
2023/03/31 00:33:30;;;;;;;2.47;1.63;;;;;;;;;;6233372;28;20479;-73
2023/03/31 00:36:44;;;;;;;1.53;1.53;;;;;;;;;;6233585;28;20299;-74
2023/03/31 00:39:49;;;;;;;1.43;1.43;;;;;;;;;;6216560;28;20305;-74
2023/03/31 00:42:55;;;;;;;1.50;1.50;;;;;;;;;;6208703;28;20292;-74
2023/03/31 00:46:14;;;;;;;1.63;1.63;;;;;;;;;;6210604;28;20327;-74
2023/03/31 00:49:25;;;;;;;1.60;1.60;;;;;;;;;;6209654;28;20302;-74
2023/03/31 00:52:34;;;;;;;1.53;1.53;;;;;;;;;;6209880;28;20382;-74
2023/03/31 00:55:42;;;;;;;1.77;1.43;;;;;;;;;;6208903;28;20465;-74
2023/03/31 00:58:48;;;;;;;1.40;1.40;;;;;;;;;;6210438;28;20304;-74
2023/03/31 01:01:58;;;;;;;1.70;1.60;;;;;;;;;;6237949;28;20459;-73
2023/03/31 01:05:03;;;;;;;1.50;1.50;;;;;;;;;;6253525;28;20299;-73
2023/03/31 01:08:09;;;;;;;1.70;1.60;;;;;;;;;;6237602;28;20308;-74
2023/03/31 01:11:16;;;;;;;1.47;1.47;;;;;;;;;;6252376;28;20294;-74
2023/03/31 01:14:21;;;;;;;1.60;1.50;;;;;;;;;;6239033;28;20293;-73
2023/03/31 01:17:28;;;;;;;1.40;1.40;;;;;;;;;;6239028;28;20574;-74
2023/03/31 01:20:42;;;;;;;1.50;1.50;;;;;;;;;;6238285;28;20299;-74
2023/03/31 01:24:25;;;;;;;1.60;1.60;;;;;;;;;;6239297;28;20296;-74
2023/03/31 01:27:54;;;;;;;1.77;1.77;;;;;;;;;;6238625;28;20319;-74
2023/03/31 01:31:24;;;;;;;1.53;1.53;;;;;;;;;;6238085;28;20290;-74
2023/03/31 01:34:46;;;;;;;1.60;1.60;;;;;;;;;;6237882;28;20307;-74
2023/03/31 01:38:36;;;;;;;1.90;1.80;;;;;;;;;;6236335;28;20283;-74
2023/03/31 01:41:53;;;;;;;1.60;1.40;;;;;;;;;;6163205;28;20586;-74
2023/03/31 01:45:03;;;;;;;1.60;1.60;;;;;;;;;;6156463;28;20322;-74
2023/03/31 01:48:17;;;;;;;1.53;1.53;;;;;;;;;;6162329;28;20306;-74
2023/03/31 01:51:28;;;;;;;1.17;1.17;;;;;;;;;;6163039;28;20363;-75
2023/03/31 01:54:38;;;;;;;1.43;1.43;;;;;;;;;;6162304;28;20309;-74
2023/03/31 01:57:48;;;;;;;1.50;1.50;;;;;;;;;;6146185;28;20609;-74
2023/03/31 02:01:00;;;;;;;2.07;1.67;;;;;;;;;;6147137;29;20297;-74
2023/03/31 02:04:09;;;;;;;1.50;1.50;;;;;;;;;;6157220;28;20582;-74
2023/03/31 02:07:18;;;;;;;1.70;1.53;;;;;;;;;;6146657;29;20313;-74
2023/03/31 02:10:25;;;;;;;1.80;1.67;;;;;;;;;;6144919;29;20306;-74
2023/03/31 02:13:38;;;;;;;1.70;1.60;;;;;;;;;;6214574;28;20300;-74
2023/03/31 02:16:46;;;;;;;1.53;1.53;;;;;;;;;;6213089;28;20424;-74
2023/03/31 02:19:54;;;;;;;1.40;1.40;;;;;;;;;;6230447;28;20311;-74
2023/03/31 02:23:00;;;;;;;1.90;1.60;;;;;;;;;;6237273;28;20287;-74
2023/03/31 02:26:08;;;;;;;1.60;1.60;;;;;;;;;;6238067;28;20296;-74
2023/03/31 02:29:15;;;;;;;2.80;1.50;;;;;;;;;;6237054;28;20303;-74
2023/03/31 02:32:24;;;;;;;1.60;1.60;;;;;;;;;;6236523;28;20291;-74
2023/03/31 02:35:30;;;;;;;1.40;1.40;;;;;;;;;;6235787;28;20386;-74
2023/03/31 02:38:38;;;;;;;1.60;1.60;;;;;;;;;;6235322;28;20307;-74
2023/03/31 02:41:43;;;;;;;1.50;1.50;;;;;;;;;;6235588;28;20295;-74
2023/03/31 02:44:50;;;;;;;1.67;1.67;;;;;;;;;;6235609;28;20455;-75
2023/03/31 02:47:58;;;;;;;1.60;1.60;;;;;;;;;;6226378;28;20309;-75
2023/03/31 02:51:19;;;;;;;1.50;1.50;;;;;;;;;;6235781;28;20323;-73
2023/03/31 02:54:56;;;;;;;1.67;1.67;;;;;;;;;;6234680;28;20316;-73
2023/03/31 02:58:27;;;;;;;1.57;1.57;;;;;;;;;;6235072;28;20291;-73
2023/03/31 03:01:43;;;;;;;1.50;1.50;;;;;;;;;;6235707;28;20400;-74
2023/03/31 03:05:03;;;;;;;1.57;1.57;;;;;;;;;;6247873;28;20305;-73
2023/03/31 03:08:20;;;;;;;1.70;1.70;;;;;;;;;;6236515;28;20315;-73
2023/03/31 03:11:30;;;;;;;1.70;1.70;;;;;;;;;;6246303;28;20283;-74
2023/03/31 03:14:38;;;;;;;1.70;1.70;;;;;;;;;;6236495;28;20319;-74
2023/03/31 03:17:45;;;;;;;1.73;1.73;;;;;;;;;;6218776;28;20299;-74
2023/03/31 03:20:51;;;;;;;2.20;1.60;;;;;;;;;;6257828;28;20287;-74
2023/03/31 03:23:56;;;;;;;1.70;1.70;;;;;;;;;;6260769;28;20307;-74
2023/03/31 03:27:02;;;;;;;1.77;1.77;;;;;;;;;;6260366;28;20345;-74
2023/03/31 03:30:09;;;;;;;1.80;1.80;;;;;;;;;;6260352;28;20307;-73
2023/03/31 03:33:16;;;;;;;1.70;1.70;;;;;;;;;;6260835;28;20290;-73
2023/03/31 03:36:22;;;;;;;2.23;1.40;;;;;;;;;;6252331;28;20324;-73
2023/03/31 03:39:27;;;;;;;1.50;1.50;;;;;;;;;;6235538;28;20299;-74
2023/03/31 03:42:32;;;;;;;1.60;1.60;;;;;;;;;;6235435;28;20291;-74
2023/03/31 03:45:37;;;;;;;1.57;1.57;;;;;;;;;;6235463;28;20478;-74
2023/03/31 03:48:45;;;;;;;1.77;1.57;;;;;;;;;;6234355;28;20318;-73
2023/03/31 03:51:50;;;;;;;1.50;1.50;;;;;;;;;;6235504;28;20334;-74
2023/03/31 03:54:55;;;;;;;1.50;1.50;;;;;;;;;;6235487;28;20564;-74
2023/03/31 03:58:00;;;;;;;1.77;1.67;;;;;;;;;;6234818;28;20444;-74
2023/03/31 04:01:06;;;;;;;1.40;1.40;;;;;;;;;;6235797;28;20304;-74
2023/03/31 04:04:14;;;;;;;1.30;1.30;;;;;;;;;;6234654;28;20299;-74
2023/03/31 04:07:19;;;;;;;2.00;1.70;;;;;;;;;;6235039;28;20583;-74
2023/03/31 04:10:24;;;;;;;1.77;1.77;;;;;;;;;;6242680;28;20298;-74
2023/03/31 04:13:29;;;;;;;;;;;;;;;;;;6239645;28;20301;-74
2023/03/31 04:16:34;;;;;;;;;;;;;;;;;;6236248;28;20009;-73
2023/03/31 04:19:41;;;;;;;;;;;;;;;;;;6234639;28;19980;-74
2023/03/31 04:22:46;;;;;;;;;;;;;;;;;;6235627;28;19980;-74
2023/03/31 04:25:50;;;;;;;;;;;;;;;;;;6236152;28;19984;-73
2023/03/31 04:28:59;;;;;;;;;;;;;;;;;;6235364;28;19980;-73
2023/03/31 04:32:04;;;;;;;1.53;1.53;;;;;;;;;;6234083;28;20289;-74
2023/03/31 04:35:14;;;;;;;1.50;1.40;;;;;;;;;;6233218;28;20462;-74
2023/03/31 04:38:21;;;;;;;1.80;1.80;;;;;;;;;;6234724;28;20583;-73
2023/03/31 04:41:27;;;;;;;1.83;1.83;;;;;;;;;;6235073;28;20299;-74
2023/03/31 04:44:32;;;;;;;1.63;1.60;;;;;;;;;;6233660;28;20576;-74
2023/03/31 04:47:37;;;;;;;1.90;1.80;;;;;;;;;;6233714;28;20294;-74
2023/03/31 04:50:45;;;;;;;1.53;1.53;;;;;;;;;;6235074;28;20294;-74
2023/03/31 04:53:50;;;;;;;2.73;1.90;;;;;;;;;;6234694;28;20402;-73
2023/03/31 04:56:55;;;;;;;1.87;1.80;;;;;;;;;;6234859;28;20299;-74
2023/03/31 05:00:00;;;;;;;1.40;1.40;;;;;;;;;;6234664;28;20299;-74
2023/03/31 05:03:06;;;;;;;1.50;1.50;;;;;;;;;;6233881;28;20299;-74
2023/03/31 05:06:12;;;;;;;1.60;1.60;;;;;;;;;;6233860;28;20340;-73
2023/03/31 05:09:19;;;;;;;2.13;2.03;;;;;;;;;;6233706;28;20307;-74
2023/03/31 05:12:24;;;;;;;1.73;1.73;;;;;;;;;;6247446;28;20296;-74
2023/03/31 05:15:32;;;;;;;1.67;1.67;;;;;;;;;;6235043;28;20575;-74
2023/03/31 05:18:39;;;;;;;1.70;1.60;;;;;;;;;;6234468;28;20304;-73
2023/03/31 05:21:45;;;;;;;1.70;1.60;;;;;;;;;;6234655;28;20299;-74
2023/03/31 05:24:50;;;;;;;2.17;1.60;;;;;;;;;;6233864;28;20302;-75
2023/03/31 05:27:56;;;;;;;1.57;1.57;;;;;;;;;;6233488;28;20401;-73
2023/03/31 05:31:02;;;;;;;1.83;1.73;;;;;;;;;;6234569;28;20299;-74
2023/03/31 05:34:07;;;;;;;1.37;1.33;;;;;;;;;;6232930;28;20611;-74
2023/03/31 05:37:13;;;;;;;1.30;1.30;;;;;;;;;;6234474;28;20293;-70
2023/03/31 05:40:19;;;;;;;1.50;1.50;;;;;;;;;;6234240;28;20334;-71
2023/03/31 05:43:24;;;;;;;1.80;1.70;;;;;;;;;;6234658;28;20307;-74
2023/03/31 05:46:29;;;;;;;1.20;1.20;;;;;;;;;;6238177;28;20300;-74
2023/03/31 05:49:35;;;;;;;1.53;1.53;;;;;;;;;;6238209;28;20300;-74
2023/03/31 05:52:41;;;;;;;2.00;1.70;;;;;;;;;;6237273;28;20386;-74
2023/03/31 05:55:46;;;;;;;1.70;1.70;;;;;;;;;;6238547;28;20266;-73
2023/03/31 05:58:51;;;;;;;1.80;1.70;;;;;;;;;;6238257;28;20306;-73
2023/03/31 06:01:57;;;;;;;1.70;1.70;;;;;;;;;;6238326;28;20281;-75
2023/03/31 06:05:02;;;;;;;2.10;2.10;;;;;;;;;;6237948;28;20575;-74
2023/03/31 06:08:09;;;;;;;1.70;1.70;;;;;;;;;;6238386;28;20333;-74
2023/03/31 06:11:18;;;;;;;2.20;1.90;;;;;;;;;;6250599;28;20303;-74
2023/03/31 06:14:23;;;;;;;1.63;1.63;;;;;;;;;;6237759;28;20310;-74
2023/03/31 06:17:28;;;;;;;1.73;1.73;;;;;;;;;;6237031;28;20294;-75
2023/03/31 06:20:33;;;;;;;3.50;1.90;;;;;;;;;;6238050;28;20297;-75
2023/03/31 06:23:40;;;;;;;2.00;1.90;;;;;;;;;;6237806;28;20594;-74
2023/03/31 06:26:45;;;;;;;1.90;1.90;;;;;;;;;;6236975;28;20303;-74
2023/03/31 06:29:50;;;;;;;2.30;2.30;;;;;;;;;;6237118;28;20306;-73
2023/03/31 06:32:56;;;;;;;2.07;2.03;;;;;;;;;;6238086;28;20294;-75
2023/03/31 06:36:04;;;;;;;2.07;1.97;;;;;;;;;;6236624;28;20308;-74
2023/03/31 06:39:10;;;;;;;3.40;1.90;;;;;;;;;;6235693;28;20303;-76
2023/03/31 06:42:16;;;;;;;1.83;1.83;;;;;;;;;;6237337;28;20294;-74
2023/03/31 06:45:23;;;;;;;1.80;1.80;;;;;;;;;;6235894;28;20579;-74
2023/03/31 06:48:28;;;;;;;1.80;1.80;;;;;;;;;;6237592;28;20299;-75
2023/03/31 06:51:33;;;;;;;1.67;1.53;;;;;;;;;;6236448;28;20297;-74
2023/03/31 06:54:41;;;;;;;1.90;1.90;;;;;;;;;;6237184;28;20299;-75
2023/03/31 06:57:46;;;;;;;1.80;1.80;;;;;;;;;;6235645;28;20291;-74
2023/03/31 07:00:52;;;;;;;1.90;1.80;;;;;;;;;;6237235;28;20295;-74
2023/03/31 07:03:57;;;;;;;1.87;1.70;;;;;;;;;;6235823;28;20299;-76
2023/03/31 07:07:02;;;;;;;1.73;1.70;;;;;;;;;;6237050;28;20289;-75
2023/03/31 07:10:09;;;;;;;1.90;1.80;;;;;;;;;;6241922;28;20296;-75
2023/03/31 07:13:15;;;;;;;1.60;1.60;;;;;;;;;;6243313;28;20480;-74
2023/03/31 07:16:21;;;;;;;2.57;1.80;;;;;;;;;;6236696;28;20297;-74
2023/03/31 07:19:26;;;;;;;1.50;1.50;;;;;;;;;;6236272;28;20295;-74
2023/03/31 07:22:31;;;;;;;2.03;1.90;;;;;;;;;;6236344;28;20607;-74
2023/03/31 07:25:38;;;;;;;2.27;2.17;;;;;;;;;;6236539;28;20300;-75
2023/03/31 07:28:43;;;;;;;5.47;5.07;;;;;;;;;;6234862;28;20303;-74
2023/03/31 07:31:48;;;;;;;2.30;2.20;;;;;;;;;;6236820;28;20275;-74
2023/03/31 07:34:54;;;;;;;2.40;2.13;;;;;;;;;;6236422;28;20295;-74
2023/03/31 07:37:59;;;;;;;2.00;2.00;;;;;;;;;;6237942;28;20316;-75
2023/03/31 07:41:05;;;;;;;2.20;2.20;;;;;;;;;;6244234;28;20305;-74
2023/03/31 07:44:16;;;;;;;2.40;2.30;;;;;;;;;;6247255;28;20304;-74
2023/03/31 07:47:21;;;;;;;1.97;1.80;;;;;;;;;;6248451;28;20264;-73
2023/03/31 07:50:26;;;;;;;3.67;3.40;;;;;;;;;;6247259;28;20304;-75
2023/03/31 07:53:33;;;;;;;2.50;2.43;;;;;;;;;;6246273;28;20575;-75
2023/03/31 07:56:39;;;;;;;2.13;2.13;;;;;;;;;;6247233;28;20276;-73
2023/03/31 07:59:46;;;;;;;2.50;2.40;;;;;;;;;;6247957;28;20266;-74
2023/03/31 08:02:51;;;;;;;3.07;2.03;;;;;;;;;;6248454;28;20254;-75
2023/03/31 08:05:56;;;;;;;2.23;2.13;;;;;;;;;;6246659;28;20289;-75
2023/03/31 08:09:01;;;;;;;2.07;2.07;;;;;;;;;;6245372;28;20307;-74
2023/03/31 08:12:08;;;;;;;3.47;3.37;;;;;;;;;;6261294;28;20295;-73
2023/03/31 08:15:13;;;;;;;3.13;2.23;;;;;;;;;;6246837;28;20304;-75
2023/03/31 08:18:18;;;;;;;3.03;2.80;;;;;;;;;;6246583;28;20300;-74
2023/03/31 08:21:24;;;;;;;1.90;1.90;;;;;;;;;;6248575;28;20291;-76
2023/03/31 08:24:29;;;;;;;2.07;2.00;;;;;;;;;;6246958;28;20252;-74
2023/03/31 08:27:36;;;;;;;2.33;1.90;;;;;;;;;;6246894;28;20284;-75
2023/03/31 08:30:41;;;;;;;2.00;1.90;;;;;;;;;;6247255;28;20291;-72
2023/03/31 08:33:47;;;;;;;1.93;1.93;;;;;;;;;;6248740;28;20299;-73
2023/03/31 08:36:52;;;;;;;1.80;1.80;;;;;;;;;;6248491;28;20265;-75
2023/03/31 08:39:57;;;;;;;1.80;1.80;;;;;;;;;;6247938;28;20296;-75
2023/03/31 08:43:09;;;;;;;2.40;2.30;;;;;;;;;;6247154;28;20255;-75
2023/03/31 08:46:18;;;;;;;3.23;3.13;;;;;;;;;;6247962;28;20300;-74
2023/03/31 08:49:23;;;;;;;2.40;2.30;;;;;;;;;;6247921;28;20291;-75
2023/03/31 08:52:33;;;;;;;2.43;2.33;;;;;;;;;;6247665;28;20307;-73
2023/03/31 08:55:47;;;;;;;2.43;2.30;;;;;;;;;;6247703;28;20254;-75
2023/03/31 08:58:54;;;;;;;2.43;1.50;;;;;;;;;;6247229;28;20251;-74
2023/03/31 09:02:05;;;;;;;2.40;2.40;;;;;;;;;;6248088;28;20308;-75
2023/03/31 09:05:40;;;;;;;1.53;1.53;;;;;;;;;;6246597;28;20322;-74
2023/03/31 09:09:03;;;;;;;2.00;2.00;;;;;;;;;;6248605;28;20260;-75
2023/03/31 09:12:14;;;;;;;2.50;2.40;;;;;;;;;;6270288;28;20291;-74
2023/03/31 09:15:27;;;;;;;2.30;2.20;;;;;;;;;;6272479;28;20248;-75
2023/03/31 09:18:34;;;;;;;2.07;1.97;;;;;;;;;;6272774;28;20250;-76
2023/03/31 09:21:41;;;;;;;2.33;2.33;;;;;;;;;;6277344;28;20299;-74
2023/03/31 09:24:51;;;;;;;2.23;2.23;;;;;;;;;;6277072;28;20296;-76
2023/03/31 09:27:58;;;;;;;2.63;2.40;;;;;;;;;;6276469;28;20296;-75
2023/03/31 09:31:11;;;;;;;2.53;2.33;;;;;;;;;;6276644;28;20304;-75
2023/03/31 09:34:20;;;;;;;1.43;1.43;;;;;;;;;;6275196;28;20306;-75
2023/03/31 09:37:28;;;;;;;2.20;2.00;;;;;;;;;;6275706;28;20285;-74
2023/03/31 09:40:35;;;;;;;2.07;2.00;;;;;;;;;;6275718;28;20259;-75
2023/03/31 09:43:41;;;;;;;2.07;2.07;;;;;;;;;;6275027;28;20310;-75
2023/03/31 09:46:47;;;;;;;1.67;1.67;;;;;;;;;;6276558;28;20275;-75
2023/03/31 09:49:53;;;;;;;2.30;1.70;;;;;;;;;;6275386;28;20256;-76
2023/03/31 09:52:59;;;;;;;1.80;1.70;;;;;;;;;;6274683;28;20304;-76
2023/03/31 09:56:07;;;;;;;1.80;1.80;;;;;;;;;;6274738;28;20248;-76
2023/03/31 09:59:16;;;;;;;1.63;1.53;;;;;;;;;;6275155;28;20297;-75
2023/03/31 10:02:36;;;;;;;1.57;1.57;;;;;;;;;;6274490;28;20289;-75
2023/03/31 10:05:50;;;;;;;2.67;2.40;;;;;;;;;;6272251;28;20296;-75
2023/03/31 10:08:56;;;;;;;2.03;2.00;;;;;;;;;;6272369;28;20294;-74
2023/03/31 10:12:05;;;;;;;3.37;2.20;;;;;;;;;;6258282;28;20595;-74
2023/03/31 10:15:20;;;;;;;3.20;3.03;;;;;;;;;;6266482;28;20295;-76
2023/03/31 10:18:34;;;;;;;2.47;2.23;;;;;;;;;;6263831;28;20305;-74
2023/03/31 10:21:40;;;;;;;2.30;2.30;;;;;;;;;;6263424;28;20327;-74
2023/03/31 10:24:47;;;;;;;1.90;1.77;;;;;;;;;;6261128;28;20289;-75
2023/03/31 10:27:54;;;;;;;1.60;1.60;;;;;;;;;;6263453;28;20295;-74
2023/03/31 10:31:01;;;;;;;2.60;2.40;;;;;;;;;;6262044;28;20315;-75
2023/03/31 10:34:15;;;;;;;2.73;2.63;;;;;;;;;;6262847;28;20299;-75
2023/03/31 10:37:23;;;;;;;2.27;2.13;;;;;;;;;;6242747;28;20304;-75
2023/03/31 10:40:30;;;;;;;1.97;1.87;;;;;;;;;;6265645;28;20293;-74
2023/03/31 10:43:39;;;;;;;1.80;1.70;;;;;;;;;;6265846;28;20302;-75
2023/03/31 10:46:48;;;;;;;2.00;1.90;;;;;;;;;;6263501;28;20306;-75
2023/03/31 10:49:57;;;;;;;2.70;2.60;;;;;;;;;;6263695;28;20292;-75
2023/03/31 10:53:06;;;;;;;1.90;1.90;;;;;;;;;;6262982;28;20284;-75
2023/03/31 10:56:24;;;;;;;1.40;1.40;;;;;;;;;;6265592;28;20355;-75
2023/03/31 10:59:42;;;;;;;1.50;1.50;;;;;;;;;;6264871;28;20295;-76
2023/03/31 11:03:17;;;;;;;1.73;1.63;;;;;;;;;;6265444;28;20300;-74
2023/03/31 11:06:29;;;;;;;2.07;2.07;;;;;;;;;;6265898;28;20312;-74
2023/03/31 11:09:41;;;;;;;2.00;2.00;;;;;;;;;;6263680;28;20299;-75
2023/03/31 11:12:51;;;;;;;1.87;1.77;;;;;;;;;;6252865;28;20288;-74
2023/03/31 11:16:02;;;;;;;1.90;1.80;;;;;;;;;;6262292;28;20296;-75
2023/03/31 11:19:16;;;;;;;1.33;1.33;;;;;;;;;;6261910;28;20368;-74
2023/03/31 11:22:29;;;;;;;1.60;1.60;;;;;;;;;;6263329;28;20590;-75
2023/03/31 11:25:38;;;;;;;1.60;1.60;;;;;;;;;;6263308;28;20298;-75
2023/03/31 11:28:56;;;;;;;2.17;1.63;;;;;;;;;;6262172;28;20299;-75
2023/03/31 11:32:16;;;;;;;1.60;1.60;;;;;;;;;;6262648;28;20301;-75
2023/03/31 11:35:37;;;;;;;1.90;1.80;;;;;;;;;;6264089;28;20314;-76
2023/03/31 11:38:53;;;;;;;1.87;1.70;;;;;;;;;;6263462;28;20288;-74
2023/03/31 11:42:00;;;;;;;1.70;1.60;;;;;;;;;;6262154;28;20400;-75
2023/03/31 11:45:13;;;;;;;1.40;1.40;;;;;;;;;;6259873;28;20294;-74
2023/03/31 11:48:24;;;;;;;3.80;3.60;;;;;;;;;;6261951;28;20308;-74
2023/03/31 11:51:42;;;;;;;3.53;1.77;;;;;;;;;;6262702;28;20292;-74
2023/03/31 11:54:53;;;;;;;1.80;1.80;;;;;;;;;;6260337;28;20298;-74
2023/03/31 11:58:02;;;;;;;2.00;2.00;;;;;;;;;;6262665;28;20621;-74
2023/03/31 12:01:14;;;;;;;2.30;2.20;;;;;;;;;;6262261;28;20301;-74
2023/03/31 12:04:28;;;;;;;3.23;1.80;;;;;;;;;;6261297;28;20309;-75
2023/03/31 12:07:38;;;;;;;1.77;1.77;;;;;;;;;;6260868;28;20296;-75
2023/03/31 12:10:50;;;;;;;1.67;1.67;;;;;;;;;;6250019;28;20280;-75
2023/03/31 12:14:00;;;;;;;2.10;1.60;;;;;;;;;;6259646;28;20312;-75
2023/03/31 12:17:09;;;;;;;1.80;1.80;;;;;;;;;;6261267;28;20284;-75
2023/03/31 12:20:20;;;;;;;1.93;1.67;;;;;;;;;;6261416;28;20287;-75
2023/03/31 12:23:29;;;;;;;1.53;1.53;;;;;;;;;;6261478;28;20303;-75
2023/03/31 12:26:41;;;;;;;1.47;1.37;;;;;;;;;;6261024;28;20307;-75
2023/03/31 12:29:49;;;;;;;1.40;1.40;;;;;;;;;;6261162;28;20295;-75
2023/03/31 12:32:56;;;;;;;1.70;1.60;;;;;;;;;;6259626;28;20604;-74
2023/03/31 12:36:14;;;;;;;1.30;1.30;;;;;;;;;;6250425;28;20427;-75
2023/03/31 12:39:29;;;;;;;1.57;1.50;;;;;;;;;;6235989;28;20315;-74
2023/03/31 12:43:21;;;;;;;2.50;2.50;;;;;;;;;;6234298;28;20313;-75
2023/03/31 12:46:41;;;;;;;1.90;1.90;;;;;;;;;;6182950;28;20316;-76
2023/03/31 12:50:09;;;;;;;1.70;1.63;;;;;;;;;;6178067;28;20320;-74
2023/03/31 12:53:21;;;;;;;1.30;1.27;;;;;;;;;;6183412;28;20314;-75
2023/03/31 12:56:26;;;;;;;1.67;1.57;;;;;;;;;;6191919;28;20594;-74
2023/03/31 12:59:36;;;;;;;1.10;1.10;;;;;;;;;;6191690;28;20300;-74
2023/03/31 13:02:41;;;;;;;1.37;1.37;;;;;;;;;;6191214;28;20301;-75
2023/03/31 13:05:48;;;;;;;1.20;1.20;;;;;;;;;;6175844;28;20298;-75
2023/03/31 13:08:55;;;;;;;1.30;1.30;;;;;;;;;;6180958;28;20308;-74
2023/03/31 13:12:08;;;;;;;1.20;1.20;;;;;;;;;;6191516;28;20320;-75
2023/03/31 13:15:16;;;;;;;5.50;4.97;;;;;;;;;;6190638;28;20371;-74
2023/03/31 13:18:22;;;;;;;2.80;2.60;;;;;;;;;;6241420;28;20316;-75
2023/03/31 13:21:27;;;;;;;2.10;1.70;;;;;;;;;;6257810;28;20318;-75
2023/03/31 13:24:33;;;;;;;1.60;1.60;;;;;;;;;;6242730;28;20343;-75
2023/03/31 13:27:38;;;;;;;1.43;1.43;;;;;;;;;;6242985;28;20295;-75
2023/03/31 13:30:53;;;;;;;1.20;1.20;;;;;;;;;;6243245;28;20295;-75
2023/03/31 13:33:59;;;;;;;1.30;1.30;;;;;;;;;;6242251;28;20596;-75
2023/03/31 13:37:17;;;;;;;1.20;1.20;;;;;;;;;;6242797;28;20296;-75
2023/03/31 13:40:45;;;;;;;1.37;1.30;;;;;;;;;;6242350;28;20307;-75
2023/03/31 13:44:13;;;;;;;2.17;2.07;;;;;;;;;;6228268;28;20293;-75
2023/03/31 13:47:40;;;;;;;2.60;2.50;;;;;;;;;;6242669;28;20300;-75
2023/03/31 13:51:07;;;;;;;1.80;1.80;;;;;;;;;;6226569;28;20304;-74
2023/03/31 13:54:44;;;;;;;1.40;1.27;;;;;;;;;;6241938;28;20303;-74
2023/03/31 13:58:22;;;;;;;1.60;1.50;;;;;;;;;;6240789;28;20333;-74
2023/03/31 14:01:51;;;;;;;1.90;1.50;;;;;;;;;;6240735;28;20299;-74
2023/03/31 14:05:34;;;;;;;2.13;1.40;;;;;;;;;;6216635;28;20310;-74
2023/03/31 14:08:47;;;;;;;2.47;1.20;;;;;;;;;;6198837;28;20299;-75
2023/03/31 14:11:52;;;;;;;1.20;1.20;;;;;;;;;;6214617;28;20290;-74
2023/03/31 14:14:57;;;;;;;1.20;1.20;;;;;;;;;;6214675;28;20302;-75
2023/03/31 14:18:04;;;;;;;1.20;1.20;;;;;;;;;;6214118;28;20381;-75
2023/03/31 14:21:20;;;;;;;2.17;1.20;;;;;;;;;;6214559;28;20460;-74
2023/03/31 14:24:29;;;;;;;1.17;1.10;;;;;;;;;;6244606;28;20303;-75
2023/03/31 14:27:47;;;;;;;4.13;3.83;;;;;;;;;;6214211;28;20305;-74
2023/03/31 14:31:01;;;;;;;1.73;1.63;;;;;;;;;;6213971;28;20304;-73
2023/03/31 14:34:34;;;;;;;1.80;1.80;;;;;;;;;;6213056;28;20297;-74
2023/03/31 14:37:40;;;;;;;1.43;1.43;;;;;;;;;;6212732;28;20266;-74
2023/03/31 14:40:48;;;;;;;1.30;1.30;;;;;;;;;;6213507;28;20265;-75
2023/03/31 14:43:53;;;;;;;1.33;1.33;;;;;;;;;;6213357;28;20307;-74
2023/03/31 14:46:59;;;;;;;1.40;1.40;;;;;;;;;;6213214;28;20309;-75
2023/03/31 14:50:12;;;;;;;1.30;1.30;;;;;;;;;;6212551;28;20296;-75
2023/03/31 14:53:22;;;;;;;2.63;2.63;;;;;;;;;;6212366;28;20463;-75
2023/03/31 14:56:33;;;;;;;1.80;1.70;;;;;;;;;;6212824;28;20578;-75
2023/03/31 14:59:39;;;;;;;1.40;1.40;;;;;;;;;;6212804;28;20291;-75
2023/03/31 15:02:46;;;;;;;1.23;1.17;;;;;;;;;;6212671;28;20488;-75
2023/03/31 15:05:51;;;;;;;3.50;2.23;;;;;;;;;;6212522;28;20294;-75
2023/03/31 15:09:01;;;;;;;2.60;2.50;;;;;;;;;;6212325;28;20354;-75
2023/03/31 15:12:10;;;;;;;2.10;2.00;;;;;;;;;;6234380;28;20458;-74
2023/03/31 15:15:16;;;;;;;2.00;1.20;;;;;;;;;;6260029;28;20302;-74
2023/03/31 15:18:21;;;;;;;1.70;1.70;;;;;;;;;;6260709;28;20305;-74
2023/03/31 15:21:28;;;;;;;1.70;1.70;;;;;;;;;;6261434;28;20299;-76
2023/03/31 15:24:34;;;;;;;1.20;1.20;;;;;;;;;;6261199;28;20336;-73
2023/03/31 15:27:43;;;;;;;3.63;3.43;;;;;;;;;;6260293;28;20287;-74
2023/03/31 15:30:50;;;;;;;1.63;1.60;;;;;;;;;;6261418;28;20306;-73
2023/03/31 15:34:21;;;;;;;1.33;1.33;;;;;;;;;;6260777;28;20304;-74
2023/03/31 15:37:31;;;;;;;2.00;1.90;;;;;;;;;;6260495;28;20288;-74
2023/03/31 15:40:40;;;;;;;2.00;2.00;;;;;;;;;;6260718;28;20290;-74
2023/03/31 15:43:49;;;;;;;1.40;1.40;;;;;;;;;;6257596;28;20300;-75
2023/03/31 15:47:01;;;;;;;1.13;1.13;;;;;;;;;;6235760;28;20274;-75
2023/03/31 15:50:12;;;;;;;2.23;1.17;;;;;;;;;;6235689;28;20459;-74
2023/03/31 15:53:31;;;;;;;1.67;1.63;;;;;;;;;;6235330;28;20433;-75
2023/03/31 15:56:42;;;;;;;1.57;1.57;;;;;;;;;;6236156;28;20297;-74
2023/03/31 15:59:48;;;;;;;1.57;1.43;;;;;;;;;;6234941;28;20561;-74
2023/03/31 16:03:01;;;;;;;1.30;1.30;;;;;;;;;;6235602;28;20298;-74
2023/03/31 16:06:09;;;;;;;1.10;1.10;;;;;;;;;;6235702;28;20306;-74
2023/03/31 16:09:16;;;;;;;1.13;1.13;;;;;;;;;;6235756;28;20284;-74
2023/03/31 16:12:25;;;;;;;1.40;1.40;;;;;;;;;;6249813;28;20288;-74
2023/03/31 16:15:34;;;;;;;1.10;1.10;;;;;;;;;;6259736;28;20300;-75
2023/03/31 16:18:42;;;;;;;3.07;2.70;;;;;;;;;;6259166;28;20300;-75
2023/03/31 16:21:51;;;;;;;1.60;1.60;;;;;;;;;;6260497;28;20314;-74
2023/03/31 16:24:56;;;;;;;1.40;1.30;;;;;;;;;;6259926;28;20299;-74
2023/03/31 16:28:04;;;;;;;1.37;1.20;;;;;;;;;;6259954;28;20457;-74
2023/03/31 16:31:29;;;;;;;1.20;1.20;;;;;;;;;;6259389;28;20291;-74
2023/03/31 16:34:35;;;;;;;1.40;1.40;;;;;;;;;;6259585;28;20468;-74
2023/03/31 16:37:40;;;;;;;2.23;2.23;;;;;;;;;;6258971;28;20282;-75
2023/03/31 16:40:46;;;;;;;2.60;2.60;;;;;;;;;;6260017;28;20273;-75
2023/03/31 16:43:53;;;;;;;2.53;1.60;;;;;;;;;;6259293;28;20472;-76
2023/03/31 16:46:59;;;;;;;1.10;1.10;;;;;;;;;;6260165;28;20304;-74
2023/03/31 16:50:06;;;;;;;1.47;1.47;;;;;;;;;;6259540;28;20481;-75
2023/03/31 16:53:13;;;;;;;1.17;1.17;;;;;;;;;;6257918;28;20304;-76
2023/03/31 16:56:18;;;;;;;1.10;1.10;;;;;;;;;;6260322;28;20305;-74
2023/03/31 16:59:25;;;;;;;1.20;1.20;;;;;;;;;;6259472;28;20312;-74
2023/03/31 17:02:31;;;;;;;1.20;1.20;;;;;;;;;;6259195;28;20318;-76
2023/03/31 17:05:40;;;;;;;2.70;2.60;;;;;;;;;;6260181;28;20499;-73
2023/03/31 17:08:45;;;;;;;1.63;1.53;;;;;;;;;;6259806;28;20291;-78
2023/03/31 17:11:50;;;;;;;1.60;1.50;;;;;;;;;;6246873;28;20291;-78
2023/03/31 17:14:57;;;;;;;1.60;1.60;;;;;;;;;;6259828;28;20290;-78
2023/03/31 17:18:02;;;;;;;1.40;1.30;;;;;;;;;;6259708;28;20291;-77
2023/03/31 17:21:09;;;;;;;2.43;2.23;;;;;;;;;;6260074;28;20299;-73
2023/03/31 17:24:15;;;;;;;1.33;1.33;;;;;;;;;;6258138;28;20312;-77
2023/03/31 17:27:20;;;;;;;1.77;1.50;;;;;;;;;;6259256;28;20296;-78
2023/03/31 17:30:27;;;;;;;1.37;1.37;;;;;;;;;;6258984;28;20301;-76
2023/03/31 17:33:32;;;;;;;3.70;1.30;;;;;;;;;;6259529;28;20308;-76
2023/03/31 17:36:37;;;;;;;1.20;1.20;;;;;;;;;;6259991;28;20299;-74
2023/03/31 17:39:42;;;;;;;2.07;1.53;;;;;;;;;;6258753;28;20298;-75
2023/03/31 17:42:48;;;;;;;1.60;1.33;;;;;;;;;;6263458;28;20290;-75
2023/03/31 17:46:01;;;;;;;1.47;1.47;;;;;;;;;;6263923;28;20291;-74
2023/03/31 17:49:07;;;;;;;1.83;1.60;;;;;;;;;;6264170;28;20295;-76
2023/03/31 17:52:13;;;;;;;1.80;1.43;;;;;;;;;;6264125;28;20303;-74
2023/03/31 17:55:18;;;;;;;1.70;1.70;;;;;;;;;;6263231;28;20307;-77
2023/03/31 17:58:23;;;;;;;2.03;1.77;;;;;;;;;;6261940;28;20299;-76
2023/03/31 18:01:30;;;;;;;3.70;1.60;;;;;;;;;;6262588;28;20308;-75
2023/03/31 18:04:36;;;;;;;1.50;1.50;;;;;;;;;;6262805;28;20302;-76
2023/03/31 18:07:41;;;;;;;1.47;1.47;;;;;;;;;;6261800;28;20278;-75
2023/03/31 18:10:46;;;;;;;1.40;1.40;;;;;;;;;;6252165;28;20578;-75
2023/03/31 18:13:52;;;;;;;1.37;1.27;;;;;;;;;;6261237;28;20294;-76
2023/03/31 18:16:58;;;;;;;1.53;1.53;;;;;;;;;;6263447;28;20307;-76
2023/03/31 18:20:04;;;;;;;2.07;1.83;;;;;;;;;;6263156;28;20283;-76
2023/03/31 18:23:11;;;;;;;1.30;1.30;;;;;;;;;;6262620;28;20292;-75
2023/03/31 18:26:16;;;;;;;1.33;1.23;;;;;;;;;;6263660;28;20601;-75
2023/03/31 18:29:22;;;;;;;1.90;1.30;;;;;;;;;;6263130;28;20611;-77
2023/03/31 18:32:28;;;;;;;1.37;1.37;;;;;;;;;;6261061;28;20294;-74
2023/03/31 18:35:34;;;;;;;1.53;1.53;;;;;;;;;;6263243;28;20466;-77
2023/03/31 18:38:40;;;;;;;1.57;1.53;;;;;;;;;;6262621;28;20582;-75
2023/03/31 18:41:46;;;;;;;1.30;1.30;;;;;;;;;;6262676;28;20295;-77
2023/03/31 18:44:52;;;;;;;2.40;1.60;;;;;;;;;;6262119;28;20429;-76
2023/03/31 18:47:58;;;;;;;1.73;1.63;;;;;;;;;;6262644;28;20303;-77
2023/03/31 18:51:04;;;;;;;1.20;1.20;;;;;;;;;;6263492;28;20469;-78
2023/03/31 18:54:11;;;;;;;3.03;1.80;;;;;;;;;;6259860;28;20578;-77
2023/03/31 18:57:16;;;;;;;1.50;1.30;;;;;;;;;;6263245;28;20295;-77
2023/03/31 19:00:22;;;;;;;2.73;2.73;;;;;;;;;;6268126;28;20295;-74